Time;durP1;ratioP1;P1;durP2;ratioP2;P2;SDS_P1;SDS_P2;PMS_P1;PMS_P2;Temp;Humidity;BMP_temperature;BMP_pressure;BME280_temperature;BME280_humidity;BME280_pressure;Samples;Min_cycle;Max_cycle;Signal;HPM_P1;HPM_P2
2024/01/19 00:02:12;;;;;;;0.10;0.10;;;;;;;-2.02;100.00;98755.66;5032770;28;20303;-52
2024/01/19 00:04:59;;;;;;;0.10;0.10;;;;;;;-2.39;100.00;98761.53;5018011;28;20201;-52
2024/01/19 00:07:46;;;;;;;0.10;0.10;;;;;;;-2.65;100.00;98766.31;5032804;28;20189;-52
2024/01/19 00:10:33;;;;;;;0.03;0.03;;;;;;;-2.65;100.00;98767.19;5046992;28;20199;-51
2024/01/19 00:13:20;;;;;;;0.10;0.10;;;;;;;-2.69;100.00;98765.53;5051445;28;20644;-52
2024/01/19 00:16:08;;;;;;;0.10;0.10;;;;;;;-2.81;100.00;98757.09;5052669;28;20278;-52
2024/01/19 00:18:55;;;;;;;0.10;0.10;;;;;;;-3.35;100.00;98763.13;5052203;28;20246;-52
2024/01/19 00:21:43;;;;;;;0.10;0.10;;;;;;;-3.44;100.00;98763.28;5032818;28;20201;-51
2024/01/19 00:24:30;;;;;;;0.00;0.00;;;;;;;-2.76;100.00;98774.28;5032614;28;20687;-51
2024/01/19 00:27:16;;;;;;;0.10;0.10;;;;;;;-2.68;100.00;98779.34;5031138;28;20221;-52
2024/01/19 00:30:03;;;;;;;0.10;0.10;;;;;;;-2.56;100.00;98786.91;5045101;28;20192;-52
2024/01/19 00:32:51;;;;;;;0.10;0.10;;;;;;;-2.81;100.00;98786.44;5056612;28;20280;-52
2024/01/19 00:35:38;;;;;;;0.10;0.10;;;;;;;-2.88;100.00;98790.91;5056611;28;20192;-52
2024/01/19 00:38:25;;;;;;;0.10;0.10;;;;;;;-3.16;100.00;98794.78;5056578;28;20330;-52
2024/01/19 00:41:13;;;;;;;0.10;0.10;;;;;;;-3.03;100.00;98793.72;5036786;28;20681;-52
2024/01/19 00:44:00;;;;;;;0.10;0.10;;;;;;;-3.19;100.00;98797.41;5036571;28;20197;-51
2024/01/19 00:46:47;;;;;;;0.10;0.10;;;;;;;-3.04;100.00;98804.97;5035741;28;20243;-52
2024/01/19 00:49:35;;;;;;;0.00;0.00;;;;;;;-3.23;100.00;98809.56;5041667;28;20200;-52
2024/01/19 00:52:22;;;;;;;0.10;0.10;;;;;;;-2.96;100.00;98812.63;5056345;28;20319;-52
2024/01/19 00:55:10;;;;;;;0.10;0.10;;;;;;;-2.46;100.00;98816.97;5056233;28;20204;-52
2024/01/19 00:57:57;;;;;;;0.10;0.10;;;;;;;-2.41;100.00;98827.28;5039706;28;20223;-52
2024/01/19 01:00:44;;;;;;;0.10;0.10;;;;;;;-2.07;100.00;98828.38;5041304;28;20201;-52
2024/01/19 01:03:31;;;;;;;0.10;0.10;;;;;;;-1.86;100.00;98829.69;5034906;28;20220;-51
2024/01/19 01:06:19;;;;;;;0.10;0.10;;;;;;;-1.93;100.00;98838.50;5019641;28;20213;-52
2024/01/19 01:09:07;;;;;;;0.10;0.10;;;;;;;-2.17;100.00;98844.97;5036158;28;20196;-52
2024/01/19 01:11:54;;;;;;;0.10;0.10;;;;;;;-2.11;100.00;98838.84;5048006;28;20679;-51
2024/01/19 01:14:41;;;;;;;0.10;0.10;;;;;;;-2.06;100.00;98847.38;5034379;28;20209;-52
2024/01/19 01:17:27;;;;;;;0.10;0.10;;;;;;;-2.13;100.00;98856.16;5037307;28;20365;-52
2024/01/19 01:20:15;;;;;;;0.10;0.10;;;;;;;-2.21;100.00;98863.25;5045202;28;20239;-52
2024/01/19 01:23:04;;;;;;;0.10;0.10;;;;;;;-2.52;100.00;98865.47;5054447;28;20192;-52
2024/01/19 01:25:51;;;;;;;0.10;0.10;;;;;;;-2.43;100.00;98863.59;5054390;28;20192;-52
2024/01/19 01:28:38;;;;;;;0.10;0.10;;;;;;;-2.67;100.00;98866.59;5053826;28;20192;-52
2024/01/19 01:31:25;;;;;;;0.10;0.10;;;;;;;-2.96;100.00;98867.03;5014739;28;20217;-52
2024/01/19 01:34:12;;;;;;;0.10;0.10;;;;;;;-3.29;100.00;98871.78;5014737;28;20237;-52
2024/01/19 01:36:59;;;;;;;0.10;0.10;;;;;;;-3.12;100.00;98876.72;5014754;28;20272;-52
2024/01/19 01:39:48;;;;;;;0.10;0.10;;;;;;;-3.62;100.00;98879.97;5026782;28;20266;-51
2024/01/19 01:42:35;;;;;;;0.10;0.10;;;;;;;-4.03;100.00;98884.72;5052890;28;20683;-52
2024/01/19 01:45:22;;;;;;;0.10;0.10;;;;;;;-3.78;100.00;98892.22;5054258;28;20200;-52
2024/01/19 01:48:08;;;;;;;0.10;0.10;;;;;;;-4.17;100.00;98903.81;5053720;28;20224;-52
2024/01/19 01:50:56;;;;;;;0.00;0.00;;;;;;;-4.01;100.00;98896.78;5038305;28;20201;-51
2024/01/19 01:53:44;;;;;;;0.10;0.10;;;;;;;-4.44;100.00;98902.31;5034122;28;20200;-52
2024/01/19 01:56:32;;;;;;;0.10;0.10;;;;;;;-4.35;100.00;98904.81;5032705;28;20244;-52
2024/01/19 01:59:20;;;;;;;0.10;0.10;;;;;;;-4.63;100.00;98906.81;5036383;28;20313;-52
2024/01/19 02:02:07;;;;;;;0.10;0.10;;;;;;;-4.71;100.00;98912.00;5013563;28;1158143;-52
2024/01/19 02:04:54;;;;;;;0.10;0.10;;;;;;;-4.19;100.00;98924.50;5054813;28;20238;-52
2024/01/19 02:07:41;;;;;;;0.10;0.10;;;;;;;-5.17;100.00;98926.91;5054692;28;20215;-52
2024/01/19 02:10:28;;;;;;;0.10;0.10;;;;;;;-5.76;100.00;98928.00;5028212;28;20224;-52
2024/01/19 02:13:17;;;;;;;0.10;0.10;;;;;;;-5.87;100.00;98940.91;5018433;28;20748;-52
2024/01/19 02:16:04;;;;;;;0.10;0.10;;;;;;;-5.61;100.00;98939.97;5034811;28;20244;-51
2024/01/19 02:18:52;;;;;;;0.10;0.10;;;;;;;-6.02;100.00;98940.09;5034826;28;20188;-52
2024/01/19 02:21:39;;;;;;;0.10;0.10;;;;;;;-6.02;100.00;98940.09;5014954;28;20197;-52
2024/01/19 02:24:27;;;;;;;0.10;0.10;;;;;;;-5.69;100.00;98937.44;5014876;28;20199;-52
2024/01/19 02:27:15;;;;;;;0.10;0.10;;;;;;;-5.87;100.00;98943.50;5013273;28;20221;-52
2024/01/19 02:30:02;;;;;;;0.10;0.10;;;;;;;-5.72;100.00;98929.69;5022477;28;20275;-52
2024/01/19 02:32:48;;;;;;;0.10;0.10;;;;;;;-5.78;100.00;98922.00;5034518;28;20209;-52
2024/01/19 02:35:35;;;;;;;0.10;0.10;;;;;;;-5.54;100.00;98927.06;5034612;28;20196;-51
2024/01/19 02:38:22;;;;;;;0.10;0.10;;;;;;;-5.78;100.00;98937.47;5034516;28;20320;-53
2024/01/19 02:41:11;;;;;;;0.10;0.10;;;;;;;-5.56;100.00;98948.56;5050815;28;20292;-52
2024/01/19 02:43:58;;;;;;;0.10;0.10;;;;;;;-5.31;100.00;98955.34;5054406;28;20192;-52
2024/01/19 02:46:45;;;;;;;0.10;0.10;;;;;;;-6.43;100.00;98959.88;5054299;28;20192;-52
2024/01/19 02:49:32;;;;;;;0.10;0.10;;;;;;;-6.49;100.00;98948.72;5047517;28;20201;-52
2024/01/19 02:52:18;;;;;;;0.00;0.00;;;;;;;-6.73;100.00;98949.56;5013731;28;20194;-52
2024/01/19 02:55:06;;;;;;;0.10;0.10;;;;;;;-6.75;100.00;98952.13;5014346;28;20194;-52
2024/01/19 02:57:54;;;;;;;0.10;0.10;;;;;;;-6.73;100.00;98958.13;5030260;28;20260;-51
2024/01/19 03:00:41;;;;;;;0.10;0.10;;;;;;;-6.58;100.00;98961.56;5034056;28;20200;-51
2024/01/19 03:03:28;;;;;;;0.10;0.10;;;;;;;-5.98;100.00;98965.00;5033750;28;20271;-51
2024/01/19 03:06:14;;;;;;;0.10;0.10;;;;;;;-6.50;100.00;98971.03;5040227;28;20328;-51
2024/01/19 03:09:01;;;;;;;0.10;0.10;;;;;;;-6.65;100.00;98973.59;5053468;28;20294;-51
2024/01/19 03:11:49;;;;;;;0.10;0.10;;;;;;;-6.51;100.00;98969.31;5012832;28;20231;-51
2024/01/19 03:14:37;;;;;;;0.10;0.10;;;;;;;-6.23;100.00;98969.34;5014069;28;20205;-51
2024/01/19 03:17:23;;;;;;;0.10;0.10;;;;;;;-5.69;100.00;98972.66;5014007;28;20202;-51
2024/01/19 03:20:11;;;;;;;0.10;0.10;;;;;;;-4.73;100.00;98972.28;5021986;28;20204;-51
2024/01/19 03:22:57;;;;;;;0.10;0.10;;;;;;;-5.27;100.00;98979.44;5034652;28;20197;-51
2024/01/19 03:25:44;;;;;;;0.07;0.07;;;;;;;-5.91;100.00;98975.31;5013911;28;20316;-51
2024/01/19 03:28:32;;;;;;;0.10;0.10;;;;;;;-6.32;100.00;98977.91;5012537;28;20336;-51
2024/01/19 03:31:19;;;;;;;0.10;0.10;;;;;;;-6.53;100.00;98981.34;5048255;28;20200;-51
2024/01/19 03:34:06;;;;;;;0.10;0.10;;;;;;;-6.20;100.00;98993.38;5053345;28;20235;-51
2024/01/19 03:36:53;;;;;;;0.10;0.10;;;;;;;-5.64;100.00;99000.16;5053292;28;20407;-51
2024/01/19 03:39:40;;;;;;;0.10;0.10;;;;;;;-5.57;100.00;99003.63;5045756;28;20264;-51
2024/01/19 03:42:28;;;;;;;0.10;0.10;;;;;;;-6.13;100.00;98999.41;5012278;28;20680;-51
2024/01/19 03:45:15;;;;;;;0.10;0.10;;;;;;;-6.49;100.00;98997.66;5013438;28;20329;-51
2024/01/19 03:48:04;;;;;;;0.10;0.10;;;;;;;-6.15;100.00;99006.28;5013343;28;20213;-51
2024/01/19 03:50:51;;;;;;;0.10;0.10;;;;;;;-5.50;100.00;99013.91;5039849;28;20200;-51
2024/01/19 03:53:37;;;;;;;0.10;0.10;;;;;;;-6.09;100.00;99016.56;5053103;28;20195;-51
2024/01/19 03:56:24;;;;;;;0.10;0.10;;;;;;;-6.74;100.00;99010.50;5051658;28;20264;-51
2024/01/19 03:59:12;;;;;;;0.10;0.10;;;;;;;-6.98;100.00;99018.13;5053005;28;20536;-52
2024/01/19 04:01:59;;;;;;;0.10;0.10;;;;;;;-7.23;100.00;99015.47;5032988;28;20253;-51
2024/01/19 04:04:48;;;;;;;0.10;0.10;;;;;;;-7.29;100.00;99015.41;5032904;28;20212;-52
2024/01/19 04:07:35;;;;;;;0.10;0.10;;;;;;;-7.37;100.00;99027.38;5032797;28;20283;-52
2024/01/19 04:10:22;;;;;;;0.10;0.10;;;;;;;-7.08;100.00;99029.22;5041824;28;20196;-52
2024/01/19 04:13:09;;;;;;;0.10;0.10;;;;;;;-7.31;100.00;99034.28;5051575;28;20670;-51
2024/01/19 04:15:56;;;;;;;0.10;0.10;;;;;;;-6.96;100.00;99037.00;5052770;28;20243;-51
2024/01/19 04:18:43;;;;;;;0.10;0.10;;;;;;;-6.53;100.00;99050.88;5052842;28;20268;-51
2024/01/19 04:21:31;;;;;;;0.10;0.10;;;;;;;-7.05;100.00;99052.41;5016412;28;20197;-51
2024/01/19 04:24:18;;;;;;;0.00;0.00;;;;;;;-7.27;100.00;99056.59;5013072;28;20195;-51
2024/01/19 04:27:05;;;;;;;0.10;0.10;;;;;;;-7.66;100.00;99054.63;5011973;28;20202;-51
2024/01/19 04:29:52;;;;;;;0.10;0.10;;;;;;;-7.32;100.00;99058.28;5022070;28;20196;-51
2024/01/19 04:32:39;;;;;;;0.10;0.10;;;;;;;-7.31;100.00;99055.72;5052519;28;20679;-51
2024/01/19 04:35:26;;;;;;;0.10;0.10;;;;;;;-7.34;100.00;99049.69;5052526;28;20199;-51
2024/01/19 04:38:14;;;;;;;0.00;0.00;;;;;;;-7.44;100.00;99053.03;5052659;28;20208;-52
2024/01/19 04:41:00;;;;;;;0.10;0.10;;;;;;;-7.69;100.00;99049.47;5024942;28;20236;-51
2024/01/19 04:43:47;;;;;;;0.10;0.10;;;;;;;-7.96;100.00;99061.25;5012968;28;20319;-51
2024/01/19 04:46:34;;;;;;;0.10;0.10;;;;;;;-7.25;100.00;99060.88;5012877;28;20210;-51
2024/01/19 04:49:21;;;;;;;0.10;0.10;;;;;;;-7.89;100.00;99059.63;5012590;28;20292;-51
2024/01/19 04:52:08;;;;;;;0.10;0.10;;;;;;;-7.71;100.00;99048.59;5052457;28;20682;-51
2024/01/19 04:54:56;;;;;;;0.10;0.10;;;;;;;-7.83;100.00;99054.50;5052549;28;20258;-51
2024/01/19 04:57:45;;;;;;;0.00;0.00;;;;;;;-7.56;100.00;99058.97;5029730;28;20209;-51
2024/01/19 05:00:32;;;;;;;0.10;0.10;;;;;;;-7.28;100.00;99068.59;5041988;28;20188;-52
2024/01/19 05:03:19;;;;;;;0.00;0.00;;;;;;;-6.42;100.00;99071.50;5052132;28;20275;-52
2024/01/19 05:06:06;;;;;;;0.10;0.10;;;;;;;-7.27;100.00;99069.44;5052208;28;20293;-51
2024/01/19 05:08:52;;;;;;;0.10;0.10;;;;;;;-7.58;100.00;99071.84;5044315;28;20218;-51
2024/01/19 05:11:41;;;;;;;0.10;0.10;;;;;;;-7.63;100.00;99077.78;5048538;28;20204;-51
2024/01/19 05:14:28;;;;;;;0.10;0.10;;;;;;;-7.65;100.00;99076.91;5051991;28;20192;-51
2024/01/19 05:17:15;;;;;;;0.10;0.10;;;;;;;-7.82;100.00;99094.75;5034009;28;20197;-51
2024/01/19 05:20:02;;;;;;;0.10;0.10;;;;;;;-8.35;100.00;99097.75;5041031;28;20679;-51
2024/01/19 05:22:49;;;;;;;0.10;0.10;;;;;;;-8.35;100.00;99084.91;5055659;28;20196;-51
2024/01/19 05:25:35;;;;;;;0.10;0.10;;;;;;;-8.17;100.00;99089.34;5055757;28;20679;-51
2024/01/19 05:28:26;;;;;;;0.10;0.10;;;;;;;-8.39;100.00;99084.03;5054341;28;20275;-51
2024/01/19 05:31:13;;;;;;;0.10;0.10;;;;;;;-8.51;100.00;99093.28;5025968;28;20201;-52
2024/01/19 05:33:59;;;;;;;0.10;0.10;;;;;;;-8.42;100.00;99090.81;5016023;28;20208;-51
2024/01/19 05:36:46;;;;;;;0.10;0.10;;;;;;;-8.28;100.00;99096.94;5015879;28;20200;-51
2024/01/19 05:39:33;;;;;;;0.10;0.10;;;;;;;-7.84;100.00;99106.75;5017355;28;20198;-51
2024/01/19 05:42:20;;;;;;;0.10;0.10;;;;;;;-7.88;100.00;99121.28;5054307;28;20196;-51
2024/01/19 05:45:09;;;;;;;0.10;0.10;;;;;;;-7.76;100.00;99124.81;5055425;28;20207;-51
2024/01/19 05:47:56;;;;;;;0.10;0.10;;;;;;;-8.45;100.00;99134.44;5055285;28;20188;-51
2024/01/19 05:50:43;;;;;;;0.10;0.10;;;;;;;-8.77;100.00;99131.50;5034432;28;20201;-51
2024/01/19 05:53:30;;;;;;;0.10;0.10;;;;;;;-9.02;100.00;99133.75;5015599;28;20209;-51
2024/01/19 05:56:17;;;;;;;0.10;0.10;;;;;;;-9.28;100.00;99135.94;5014130;28;20205;-51
2024/01/19 05:59:04;;;;;;;0.10;0.10;;;;;;;-8.88;100.00;99138.19;5015392;28;20189;-51
2024/01/19 06:01:52;;;;;;;0.10;0.10;;;;;;;-8.45;100.00;99139.59;5054116;28;20220;-51
2024/01/19 06:04:41;;;;;;;0.10;0.10;;;;;;;-8.51;100.00;99148.06;5054971;28;20288;-51
2024/01/19 06:07:30;;;;;;;0.00;0.00;;;;;;;-8.40;100.00;99153.31;5054952;28;20280;-51
2024/01/19 06:10:16;;;;;;;0.10;0.10;;;;;;;-8.56;100.00;99161.72;5041793;28;20219;-51
2024/01/19 06:13:04;;;;;;;0.10;0.10;;;;;;;-8.20;100.00;99177.50;5013821;28;20341;-51
2024/01/19 06:15:51;;;;;;;0.10;0.10;;;;;;;-8.28;100.00;99166.28;5015139;28;20237;-51
2024/01/19 06:18:39;;;;;;;0.10;0.10;;;;;;;-8.31;100.00;99173.94;5015106;28;20198;-51
2024/01/19 06:21:27;;;;;;;0.10;0.10;;;;;;;-8.08;100.00;99175.06;5046490;28;20200;-51
2024/01/19 06:24:15;;;;;;;0.10;0.10;;;;;;;-7.93;100.00;99179.47;5054723;28;20274;-51
2024/01/19 06:27:03;;;;;;;0.10;0.10;;;;;;;-7.66;100.00;99178.03;5052069;28;20192;-51
2024/01/19 06:29:49;;;;;;;0.10;0.10;;;;;;;-7.57;100.00;99178.09;5049344;28;20342;-51
2024/01/19 06:32:36;;;;;;;0.10;0.10;;;;;;;-7.96;100.00;99187.16;5014944;28;20261;-51
2024/01/19 06:35:25;;;;;;;0.10;0.10;;;;;;;-7.70;100.00;99184.00;5014765;28;20197;-51
2024/01/19 06:38:12;;;;;;;0.10;0.10;;;;;;;-7.32;100.00;99199.75;5014721;28;20261;-51
2024/01/19 06:40:58;;;;;;;0.10;0.10;;;;;;;-7.09;100.00;99203.34;5038058;28;20192;-51
2024/01/19 06:43:45;;;;;;;0.10;0.10;;;;;;;-6.84;100.00;99199.25;5054333;28;20184;-51
2024/01/19 06:46:32;;;;;;;0.00;0.00;;;;;;;-7.38;100.00;99208.28;5054246;28;20331;-51
2024/01/19 06:49:19;;;;;;;0.10;0.10;;;;;;;-7.65;100.00;99214.03;5053973;28;20216;-51
2024/01/19 06:52:08;;;;;;;0.10;0.10;;;;;;;-7.70;100.00;99223.44;5014337;28;20201;-51
2024/01/19 06:54:54;;;;;;;0.00;0.00;;;;;;;-7.81;100.00;99205.31;5014348;28;20194;-51
2024/01/19 06:57:41;;;;;;;0.10;0.10;;;;;;;-7.37;100.00;99210.00;5013081;28;20272;-51
2024/01/19 07:00:28;;;;;;;0.10;0.10;;;;;;;-6.72;100.00;99232.78;5021611;28;20193;-51
2024/01/19 07:03:15;;;;;;;0.10;0.10;;;;;;;-6.67;100.00;99251.69;5033088;28;20707;-51
2024/01/19 07:06:02;;;;;;;0.10;0.10;;;;;;;-6.80;100.00;99267.03;5033997;28;20328;-51
2024/01/19 07:08:50;;;;;;;0.03;0.03;;;;;;;-6.99;100.00;99261.75;5033920;28;20193;-52
2024/01/19 07:11:37;;;;;;;0.10;0.10;;;;;;;-7.30;100.00;99257.22;5040405;28;20305;-52
2024/01/19 07:14:25;;;;;;;0.07;0.07;;;;;;;-6.95;100.00;99254.91;5013930;28;20209;-51
2024/01/19 07:17:12;;;;;;;0.10;0.10;;;;;;;-7.05;100.00;99255.69;5019329;28;20333;-51
2024/01/19 07:20:05;;;;;;;0.10;0.10;;;;;;;-7.16;100.00;99247.88;5020640;28;20196;-52
2024/01/19 07:22:53;;;;;;;0.10;0.10;;;;;;;-7.32;100.00;99241.78;5053829;28;20192;-51
2024/01/19 07:25:41;;;;;;;0.10;0.10;;;;;;;-7.11;100.00;99265.97;5053646;28;20227;-51
2024/01/19 07:28:28;;;;;;;0.10;0.10;;;;;;;-6.80;100.00;99282.50;5053002;28;20192;-51
2024/01/19 07:31:15;;;;;;;0.10;0.10;;;;;;;-5.63;100.00;99298.53;5026657;28;20292;-51
2024/01/19 07:34:02;;;;;;;0.10;0.10;;;;;;;-5.83;100.00;99298.47;5013840;28;20194;-51
2024/01/19 07:36:48;;;;;;;0.10;0.10;;;;;;;-5.08;100.00;99301.22;5013755;28;20193;-52
2024/01/19 07:39:35;;;;;;;0.10;0.10;;;;;;;-5.60;100.00;99307.97;5013421;28;20684;-51
2024/01/19 07:42:24;;;;;;;0.10;0.10;;;;;;;-5.26;100.00;99320.13;5012450;28;20193;-52
2024/01/19 07:45:11;;;;;;;0.00;0.00;;;;;;;-5.88;100.00;99328.53;5013503;28;20284;-51
2024/01/19 07:47:58;;;;;;;0.10;0.10;;;;;;;-5.20;100.00;99325.31;5013548;28;20200;-52
2024/01/19 07:50:45;;;;;;;0.10;0.10;;;;;;;-5.60;100.00;99323.47;5022077;28;20704;-52
2024/01/19 07:53:32;;;;;;;0.10;0.10;;;;;;;-5.34;100.00;99319.25;5033204;28;20196;-52
2024/01/19 07:56:19;;;;;;;0.10;0.10;;;;;;;-5.60;100.00;99326.03;5031832;28;20189;-51
2024/01/19 07:59:07;;;;;;;0.10;0.10;;;;;;;-5.56;100.00;99331.22;5033107;28;20328;-52
2024/01/19 08:01:54;;;;;;;0.10;0.10;;;;;;;-5.42;100.00;99327.81;5051147;28;20335;-52
2024/01/19 08:04:44;;;;;;;0.10;0.10;;;;;;;-5.32;100.00;99345.03;5053051;28;20196;-51
2024/01/19 08:07:31;;;;;;;0.10;0.10;;;;;;;-4.88;100.00;99360.63;5052839;28;20226;-52
2024/01/19 08:10:19;;;;;;;0.10;0.10;;;;;;;-5.11;100.00;99349.44;5042893;28;20233;-51
2024/01/19 08:13:08;;;;;;;0.10;0.10;;;;;;;-5.03;100.00;99351.13;5011911;28;20320;-51
2024/01/19 08:15:57;;;;;;;0.10;0.10;;;;;;;-4.76;100.00;99357.19;5013164;28;20213;-52
2024/01/19 08:18:45;;;;;;;0.10;0.10;;;;;;;-4.75;100.00;99348.56;5013135;28;20216;-52
2024/01/19 08:21:32;;;;;;;0.10;0.10;;;;;;;-4.68;100.00;99355.47;5042454;28;20219;-52
2024/01/19 08:24:20;;;;;;;0.10;0.10;;;;;;;-4.65;100.00;99348.56;5052609;28;20220;-52
2024/01/19 08:27:06;;;;;;;0.10;0.10;;;;;;;-4.44;100.00;99355.50;5051413;28;20551;-51
2024/01/19 08:29:54;;;;;;;0.10;0.10;;;;;;;-4.34;100.00;99354.63;5050155;28;20212;-52
2024/01/19 08:32:42;;;;;;;0.10;0.10;;;;;;;-4.06;100.00;99354.53;5012730;28;20193;-52
2024/01/19 08:35:29;;;;;;;0.10;0.10;;;;;;;-4.02;100.00;99361.44;5013018;28;20202;-51
2024/01/19 08:38:16;;;;;;;0.10;0.10;;;;;;;-3.95;100.00;99365.75;5012943;28;20196;-52
2024/01/19 08:41:03;;;;;;;0.00;0.00;;;;;;;-4.06;100.00;99359.72;5032950;28;20200;-51
2024/01/19 08:43:51;;;;;;;0.10;0.10;;;;;;;-3.39;100.00;99359.47;5052614;28;20257;-52
2024/01/19 08:46:43;;;;;;;0.10;0.10;;;;;;;-2.99;100.00;99369.63;5052605;28;20200;-52
2024/01/19 08:49:31;;;;;;;0.10;0.10;;;;;;;-2.61;100.00;99387.50;5052079;28;20231;-52
2024/01/19 08:52:19;;;;;;;0.10;0.10;;;;;;;-2.68;100.00;99386.72;5016694;28;20194;-52
2024/01/19 08:55:06;;;;;;;0.10;0.10;;;;;;;-2.21;100.00;99388.06;5016757;28;20275;-52
2024/01/19 08:57:54;;;;;;;0.00;0.00;;;;;;;-2.67;100.00;99401.38;5015189;28;20226;-52
2024/01/19 09:00:41;;;;;;;0.10;0.10;;;;;;;-2.78;100.00;99387.66;5023082;28;20193;-52
2024/01/19 09:03:28;;;;;;;0.10;0.10;;;;;;;-2.62;100.00;99389.25;5016174;28;20225;-52
2024/01/19 09:06:17;;;;;;;0.10;0.10;;;;;;;-2.32;100.00;99393.34;5026625;28;20313;-53
2024/01/19 09:09:04;;;;;;;0.10;0.10;;;;;;;-2.32;100.00;99402.84;5016447;28;20197;-52
2024/01/19 09:11:52;;;;;;;0.10;0.10;;;;;;;-2.19;100.00;99409.66;5048356;28;20219;-52
2024/01/19 09:14:40;;;;;;;0.00;0.00;;;;;;;-2.59;100.00;99424.69;5055963;28;20272;-52
2024/01/19 09:17:27;;;;;;;0.10;0.10;;;;;;;-2.56;100.00;99427.22;5044678;28;20197;-51
2024/01/19 09:20:14;;;;;;;0.10;0.10;;;;;;;-2.43;100.00;99438.38;5022668;28;20192;-52
2024/01/19 09:23:02;;;;;;;0.07;0.07;;;;;;;-2.50;100.00;99440.16;5055855;28;20706;-52
2024/01/19 09:25:49;;;;;;;0.10;0.10;;;;;;;-2.34;100.00;99436.56;5055847;28;20204;-52
2024/01/19 09:28:36;;;;;;;0.10;0.10;;;;;;;-2.05;100.00;99432.88;5055703;28;20282;-51
2024/01/19 09:31:23;;;;;;;0.07;0.07;;;;;;;-2.38;100.00;99450.44;5030312;28;20217;-52
2024/01/19 09:34:10;;;;;;;0.10;0.10;;;;;;;-2.42;100.00;99446.13;5016034;28;20235;-52
2024/01/19 09:36:57;;;;;;;0.10;0.10;;;;;;;-1.80;100.00;99456.88;5015968;28;20201;-52
2024/01/19 09:39:45;;;;;;;0.00;0.00;;;;;;;-2.04;100.00;99468.31;5014702;28;20245;-51
2024/01/19 09:42:34;;;;;;;0.00;0.00;;;;;;;-1.63;100.00;99477.50;4999496;28;20197;-52
2024/01/19 09:45:27;;;;;;;0.10;0.10;;;;;;;-1.92;100.00;99476.03;5015659;28;20309;-52
2024/01/19 09:48:23;;;;;;;0.10;0.10;;;;;;;-1.75;100.00;99487.09;5015731;28;20208;-52
2024/01/19 09:51:11;;;;;;;0.10;0.10;;;;;;;-1.69;100.00;99482.75;5022343;28;20221;-52
2024/01/19 09:54:04;;;;;;;0.10;0.10;;;;;;;-1.66;100.00;99480.09;5034516;28;20208;-52
2024/01/19 09:56:53;;;;;;;0.07;0.07;;;;;;;-1.68;100.00;99492.25;5033453;28;20193;-52
2024/01/19 09:59:41;;;;;;;0.10;0.10;;;;;;;-1.40;100.00;99490.25;5035265;28;20205;-52
2024/01/19 10:02:32;;;;;;;0.10;0.10;;;;;;;-1.59;100.00;99476.59;5014529;28;20296;-52
2024/01/19 10:05:20;;;;;;;0.10;0.10;;;;;;;-1.29;100.00;99483.19;5015354;28;20217;-52
2024/01/19 10:08:07;;;;;;;0.00;0.00;;;;;;;-1.62;100.00;99479.22;5015366;28;20264;-52
2024/01/19 10:11:01;;;;;;;0.10;0.10;;;;;;;-1.38;100.00;99485.88;5022921;28;20217;-52
2024/01/19 10:13:49;;;;;;;0.10;0.10;;;;;;;-1.79;100.00;99494.94;5035028;28;20321;-51
2024/01/19 10:16:38;;;;;;;0.00;0.00;;;;;;;-1.85;100.00;99485.47;5020004;28;20269;-52
2024/01/19 10:19:26;;;;;;;0.10;0.10;;;;;;;-1.42;100.00;99495.47;5031843;28;20301;-52
2024/01/19 10:22:25;;;;;;;0.10;0.10;;;;;;;-1.55;100.00;99493.84;5052729;28;20270;-52
2024/01/19 10:25:14;;;;;;;0.10;0.10;;;;;;;-1.23;100.00;99499.59;5053859;28;20319;-52
2024/01/19 10:28:03;;;;;;;0.10;0.10;;;;;;;-1.35;100.00;99499.72;5052172;28;20199;-52
2024/01/19 10:30:52;;;;;;;0.10;0.10;;;;;;;-1.28;100.00;99510.91;5039436;28;20221;-52
2024/01/19 10:33:48;;;;;;;0.10;0.10;;;;;;;-1.23;100.00;99509.13;5013974;28;20197;-52
2024/01/19 10:36:39;;;;;;;0.10;0.10;;;;;;;-1.50;100.00;99502.47;5041699;28;20303;-52
2024/01/19 10:39:29;;;;;;;0.10;0.10;;;;;;;-1.49;100.00;99509.38;5053549;28;20299;-52
2024/01/19 10:42:16;;;;;;;0.10;0.10;;;;;;;-1.34;100.00;99510.97;5014411;28;20724;-52
2024/01/19 10:45:15;;;;;;;0.10;0.10;;;;;;;-1.03;100.00;99509.75;5012846;28;20205;-52
2024/01/19 10:48:03;;;;;;;0.10;0.10;;;;;;;-1.19;100.00;99513.38;5013696;28;20213;-52
2024/01/19 10:50:51;;;;;;;0.10;0.10;;;;;;;-1.16;100.00;99509.03;5026757;28;20212;-52
2024/01/19 10:53:38;;;;;;;0.10;0.10;;;;;;;-0.98;100.00;99510.53;5053443;28;20192;-52
2024/01/19 10:56:25;;;;;;;0.10;0.10;;;;;;;-0.80;100.00;99519.00;5051702;28;20199;-52
2024/01/19 10:59:13;;;;;;;0.10;0.10;;;;;;;-0.75;100.00;99523.28;5053337;28;20196;-52
2024/01/19 11:02:02;;;;;;;0.00;0.00;;;;;;;-0.96;100.00;99523.56;5022578;28;20284;-51
2024/01/19 11:04:52;;;;;;;0.10;0.10;;;;;;;-1.11;100.00;99527.16;5032804;28;20200;-52
2024/01/19 11:07:39;;;;;;;0.10;0.10;;;;;;;-0.72;100.00;99522.38;5033184;28;20617;-52
2024/01/19 11:10:27;;;;;;;0.07;0.07;;;;;;;-0.51;100.00;99529.91;5036347;28;20207;-52
2024/01/19 11:13:15;;;;;;;0.10;0.10;;;;;;;0.23;100.00;99532.28;5050586;28;20679;-52
2024/01/19 11:16:08;;;;;;;0.10;0.10;;;;;;;0.31;100.00;99529.56;5047498;28;20216;-52
2024/01/19 11:18:56;;;;;;;0.10;0.10;;;;;;;0.59;100.00;99532.56;5052200;28;20671;-52
2024/01/19 11:21:45;;;;;;;0.10;0.10;;;;;;;0.51;100.00;99532.69;5038731;28;20236;-52
2024/01/19 11:24:38;;;;;;;0.10;0.10;;;;;;;0.59;100.00;99543.84;5032879;28;20200;-52
2024/01/19 11:27:34;;;;;;;0.10;0.10;;;;;;;0.70;100.00;99541.03;5042629;28;20195;-52
2024/01/19 11:30:38;;;;;;;0.10;0.10;;;;;;;0.98;100.00;99536.19;5050585;28;20224;-53
2024/01/19 11:33:31;;;;;;;0.10;0.10;;;;;;;1.50;100.00;99530.75;5032300;28;20185;-53
2024/01/19 11:36:49;;;;;;;0.00;0.00;;;;;;;0.74;100.00;99542.69;5032574;28;20204;-53
2024/01/19 11:39:43;;;;;;;0.10;0.10;;;;;;;0.64;100.00;99535.94;5032498;28;20277;-52
2024/01/19 11:42:46;;;;;;;0.10;0.10;;;;;;;0.76;100.00;99533.94;5050575;28;20208;-52
2024/01/19 11:45:42;;;;;;;0.10;0.10;;;;;;;1.06;100.00;99535.13;5052444;28;20195;-52
2024/01/19 11:48:43;;;;;;;0.10;0.10;;;;;;;1.35;100.00;99533.66;5051672;28;20295;-52
2024/01/19 11:51:34;;;;;;;0.10;0.10;;;;;;;0.61;100.00;99538.59;5040786;28;20208;-53
2024/01/19 11:54:28;;;;;;;0.10;0.10;;;;;;;0.40;100.00;99539.81;5031193;28;20325;-52
2024/01/19 11:57:18;;;;;;;0.00;0.00;;;;;;;0.41;100.00;99538.94;5030550;28;20201;-52
2024/01/19 12:00:08;;;;;;;0.10;0.10;;;;;;;0.64;100.00;99547.19;5032145;28;20201;-52
2024/01/19 12:02:57;;;;;;;0.10;0.10;;;;;;;0.94;100.00;99547.53;5011870;28;20259;-52
2024/01/19 12:05:45;;;;;;;0.03;0.03;;;;;;;0.82;100.00;99541.66;5012624;28;20210;-52
2024/01/19 12:08:32;;;;;;;0.10;0.10;;;;;;;1.04;100.00;99541.25;4998214;28;20274;-52
2024/01/19 12:11:22;;;;;;;0.10;0.10;;;;;;;1.27;100.00;99546.91;5021383;28;20196;-52
2024/01/19 12:14:14;;;;;;;0.10;0.10;;;;;;;1.13;100.00;99541.06;5032825;28;20209;-51
2024/01/19 12:17:01;;;;;;;0.10;0.10;;;;;;;1.42;100.00;99553.53;5032684;28;20209;-52
2024/01/19 12:19:52;;;;;;;0.10;0.10;;;;;;;1.31;100.00;99552.91;5032955;28;20195;-52
2024/01/19 12:22:39;;;;;;;0.00;0.00;;;;;;;1.17;100.00;99553.19;5013143;28;20245;-52
2024/01/19 12:25:26;;;;;;;0.10;0.10;;;;;;;1.25;100.00;99548.66;5016476;28;20220;-52
2024/01/19 12:28:15;;;;;;;0.10;0.10;;;;;;;0.86;100.00;99550.28;5015842;28;20193;-52
2024/01/19 12:31:02;;;;;;;0.10;0.10;;;;;;;1.00;100.00;99556.13;5024017;28;20209;-51
2024/01/19 12:33:49;;;;;;;0.10;0.10;;;;;;;1.14;100.00;99556.69;5036779;28;20197;-52
2024/01/19 12:36:36;;;;;;;0.10;0.10;;;;;;;0.68;100.00;99555.84;5036817;28;20189;-52
2024/01/19 12:39:23;;;;;;;0.10;0.10;;;;;;;0.86;100.00;99550.28;5036798;28;20197;-52
2024/01/19 12:42:10;;;;;;;0.10;0.10;;;;;;;0.96;100.00;99554.44;5051588;28;20284;-52
2024/01/19 12:45:00;;;;;;;0.00;0.00;;;;;;;1.68;100.00;99555.59;5056608;28;20234;-52
2024/01/19 12:47:48;;;;;;;0.00;0.00;;;;;;;1.39;100.00;99554.47;5056569;28;20202;-52
2024/01/19 12:50:34;;;;;;;0.10;0.10;;;;;;;1.76;100.00;99564.13;5050542;28;20266;-52
2024/01/19 12:53:21;;;;;;;0.00;0.00;;;;;;;1.63;100.00;99558.28;5016309;28;20225;-52
2024/01/19 12:56:23;;;;;;;0.10;0.10;;;;;;;1.08;100.00;99559.44;5014390;28;20197;-53
2024/01/19 12:59:12;;;;;;;0.10;0.10;;;;;;;0.75;100.00;99562.66;5016647;28;20313;-52
2024/01/19 13:02:00;;;;;;;0.10;0.10;;;;;;;0.80;100.00;99555.63;5044793;28;20192;-52
2024/01/19 13:04:47;;;;;;;0.10;0.10;;;;;;;1.04;100.00;99552.53;5056248;28;20196;-52